Time;durP1;ratioP1;P1;durP2;ratioP2;P2;SDS_P1;SDS_P2;PMS_P1;PMS_P2;Temp;Humidity;BMP_temperature;BMP_pressure;BME280_temperature;BME280_humidity;BME280_pressure;Samples;Min_cycle;Max_cycle;Signal;HPM_P1;HPM_P2
2023/09/16 00:01:13;;;;;;;4.70;4.27;;;16.50;99.90;;;;;;5097263;28;20172;-64
2023/09/16 00:03:39;;;;;;;4.73;4.33;;;16.50;99.90;;;;;;5101292;28;20967;-64
2023/09/16 00:06:05;;;;;;;4.73;4.23;;;16.60;99.90;;;;;;5097459;28;20188;-64
2023/09/16 00:08:35;;;;;;;4.60;4.20;;;16.70;99.90;;;;;;5092529;28;20180;-64
2023/09/16 00:11:01;;;;;;;4.50;4.10;;;16.70;99.90;;;;;;5097450;28;20233;-64
2023/09/16 00:13:27;;;;;;;5.10;4.33;;;16.70;99.90;;;;;;5094904;28;20472;-64
2023/09/16 00:15:52;;;;;;;4.23;3.80;;;16.80;99.90;;;;;;5094162;28;20218;-64
2023/09/16 00:18:18;;;;;;;3.73;3.43;;;16.80;99.90;;;;;;5097259;28;21005;-64
2023/09/16 00:20:48;;;;;;;4.70;4.30;;;16.90;99.90;;;;;;5091515;28;20274;-64
2023/09/16 00:23:14;;;;;;;4.33;4.00;;;16.90;99.90;;;;;;5098859;28;20831;-64
2023/09/16 00:25:40;;;;;;;4.40;3.67;;;16.90;99.90;;;;;;5094177;28;20426;-64
2023/09/16 00:28:08;;;;;;;4.13;3.73;;;16.90;99.90;;;;;;5103689;28;20421;-64
2023/09/16 00:30:39;;;;;;;6.30;4.20;;;16.90;99.90;;;;;;5091357;28;20262;-64
2023/09/16 00:33:05;;;;;;;4.40;4.00;;;16.90;99.90;;;;;;5094261;28;20462;-64
2023/09/16 00:35:30;;;;;;;5.27;4.13;;;16.90;99.90;;;;;;5094556;28;20482;-64
2023/09/16 00:37:56;;;;;;;4.87;4.40;;;16.90;99.90;;;;;;5102749;28;20271;-64
2023/09/16 00:40:22;;;;;;;4.23;3.83;;;16.90;99.90;;;;;;5093914;28;20433;-64
2023/09/16 00:42:48;;;;;;;4.60;4.20;;;16.80;99.90;;;;;;5091830;28;20184;-64
2023/09/16 00:45:14;;;;;;;5.30;4.80;;;16.80;99.90;;;;;;5095066;28;20300;-64
2023/09/16 00:47:41;;;;;;;5.90;5.20;;;16.80;99.90;;;;;;5087996;28;20936;-65
2023/09/16 00:50:11;;;;;;;8.53;5.10;;;16.90;99.90;;;;;;5094108;28;20422;-64
2023/09/16 00:52:41;;;;;;;4.37;3.97;;;16.90;99.90;;;;;;5091437;28;20431;-64
2023/09/16 00:55:08;;;;;;;4.50;4.10;;;16.90;99.90;;;;;;5093981;28;21011;-64
2023/09/16 00:57:39;;;;;;;5.00;4.60;;;16.90;99.90;;;;;;5088295;28;20559;-64
2023/09/16 01:00:07;;;;;;;6.10;3.90;;;17.00;99.90;;;;;;5093735;28;20461;-64
2023/09/16 01:02:35;;;;;;;4.27;3.80;;;17.00;99.90;;;;;;5091516;27;20437;-64
2023/09/16 01:05:04;;;;;;;5.20;4.13;;;17.00;99.90;;;;;;5089374;28;20542;-64
2023/09/16 01:07:31;;;;;;;6.57;4.00;;;17.00;99.90;;;;;;5091748;28;20429;-64
2023/09/16 01:09:56;;;;;;;5.80;4.50;;;17.00;99.90;;;;;;5092579;28;20710;-64
2023/09/16 01:12:22;;;;;;;6.00;4.50;;;17.00;99.90;;;;;;5090295;28;20474;-64
2023/09/16 01:14:48;;;;;;;5.20;4.50;;;17.00;99.90;;;;;;5087642;28;20257;-64
2023/09/16 01:17:32;;;;;;;5.93;4.10;;;17.00;99.90;;;;;;5094204;28;20172;-64
2023/09/16 01:20:01;;;;;;;6.07;4.20;;;16.90;99.90;;;;;;5091357;28;20797;-64
2023/09/16 01:22:27;;;;;;;4.23;3.93;;;17.00;99.90;;;;;;5090438;28;20440;-64
2023/09/16 01:24:54;;;;;;;6.30;4.80;;;17.00;99.90;;;;;;5091615;28;20419;-63
2023/09/16 01:27:21;;;;;;;5.60;5.10;;;16.90;99.90;;;;;;5092992;28;20444;-64
2023/09/16 01:29:48;;;;;;;5.53;4.97;;;16.90;99.90;;;;;;5089922;28;20429;-64
2023/09/16 01:32:16;;;;;;;4.60;4.20;;;16.90;99.90;;;;;;5090864;28;20503;-64
2023/09/16 01:34:49;;;;;;;4.87;4.47;;;16.80;99.90;;;;;;5090270;28;20477;-64
2023/09/16 01:37:21;;;;;;;5.80;4.53;;;16.80;99.90;;;;;;5093997;28;20500;-63
2023/09/16 01:39:52;;;;;;;5.07;4.67;;;16.80;99.90;;;;;;5090649;28;20423;-64
2023/09/16 01:42:18;;;;;;;5.80;5.30;;;16.70;99.90;;;;;;5090422;28;20429;-64
2023/09/16 01:44:44;;;;;;;5.00;4.60;;;16.70;99.90;;;;;;5087157;28;20422;-64
2023/09/16 01:47:10;;;;;;;5.13;4.73;;;16.70;99.90;;;;;;5092819;28;20429;-64
2023/09/16 01:49:36;;;;;;;5.47;4.97;;;16.70;99.90;;;;;;5090660;28;20227;-64
2023/09/16 01:52:02;;;;;;;5.67;5.17;;;16.70;99.90;;;;;;5091897;28;20188;-64
2023/09/16 01:54:28;;;;;;;5.57;5.07;;;16.70;99.90;;;;;;5091329;28;20632;-64
2023/09/16 01:56:54;;;;;;;5.20;4.70;;;16.70;99.90;;;;;;5091070;28;20460;-64
2023/09/16 01:59:20;;;;;;;5.93;4.37;;;16.70;99.90;;;;;;5092395;28;20218;-64
2023/09/16 02:01:46;;;;;;;5.50;4.07;;;16.70;99.90;;;;;;5086845;28;20226;-64
2023/09/16 02:04:12;;;;;;;5.13;4.67;;;16.70;99.90;;;;;;5092923;28;20437;-64
2023/09/16 02:06:38;;;;;;;6.33;5.60;;;16.70;99.90;;;;;;5089530;28;20534;-64
2023/09/16 02:09:04;;;;;;;6.50;5.03;;;16.60;99.90;;;;;;5091780;28;20428;-64
2023/09/16 02:11:31;;;;;;;5.17;4.67;;;16.50;99.90;;;;;;5090616;28;20430;-64
2023/09/16 02:13:58;;;;;;;5.47;5.03;;;16.50;99.90;;;;;;5090144;28;20471;-64
2023/09/16 02:16:23;;;;;;;5.57;5.07;;;16.40;99.90;;;;;;5084885;28;20434;-64
2023/09/16 02:18:49;;;;;;;5.57;5.07;;;16.40;99.90;;;;;;5090220;28;20856;-64
2023/09/16 02:21:15;;;;;;;5.70;5.20;;;16.40;99.90;;;;;;5092802;28;20904;-64
2023/09/16 02:23:41;;;;;;;5.57;5.00;;;16.40;99.90;;;;;;5089516;28;20191;-65
2023/09/16 02:26:06;;;;;;;5.50;4.37;;;16.40;99.90;;;;;;5091900;28;20308;-65
2023/09/16 02:28:32;;;;;;;6.87;5.40;;;16.40;99.90;;;;;;5089119;28;21144;-65
2023/09/16 02:30:58;;;;;;;5.60;5.10;;;16.50;99.90;;;;;;5090381;28;20203;-65
2023/09/16 02:33:23;;;;;;;6.10;5.50;;;16.50;99.90;;;;;;5091034;28;20219;-64
2023/09/16 02:35:49;;;;;;;5.30;4.80;;;16.40;99.90;;;;;;5089726;28;20229;-65
2023/09/16 02:38:15;;;;;;;5.27;4.77;;;16.40;99.90;;;;;;5092559;28;20507;-63
2023/09/16 02:40:41;;;;;;;8.20;4.97;;;16.40;99.90;;;;;;5086270;28;20200;-64
2023/09/16 02:43:08;;;;;;;5.37;4.87;;;16.40;99.90;;;;;;5092300;28;20180;-65
2023/09/16 02:45:43;;;;;;;4.37;4.00;;;16.40;99.90;;;;;;5089410;28;20433;-65
2023/09/16 02:48:10;;;;;;;5.20;4.80;;;16.40;99.90;;;;;;5091570;28;20517;-64
2023/09/16 02:50:39;;;;;;;5.20;4.53;;;16.40;99.90;;;;;;5089242;28;20418;-64
2023/09/16 02:53:05;;;;;;;5.00;4.50;;;16.30;99.90;;;;;;5088073;28;20426;-64
2023/09/16 02:55:32;;;;;;;5.57;4.97;;;16.30;99.90;;;;;;5089828;28;20429;-65
2023/09/16 02:57:59;;;;;;;5.10;4.60;;;16.30;99.90;;;;;;5090015;28;20466;-64
2023/09/16 03:00:25;;;;;;;5.03;4.53;;;16.30;99.90;;;;;;5090875;28;20421;-64
2023/09/16 03:02:51;;;;;;;5.40;4.87;;;16.20;99.90;;;;;;5089511;28;20431;-65
2023/09/16 03:05:16;;;;;;;6.27;4.77;;;16.20;99.90;;;;;;5092292;28;20210;-64
2023/09/16 03:07:44;;;;;;;6.10;5.50;;;16.20;99.90;;;;;;5089028;28;20192;-65
2023/09/16 03:10:10;;;;;;;5.37;4.87;;;16.20;99.90;;;;;;5091726;28;20434;-65
2023/09/16 03:12:36;;;;;;;5.17;4.67;;;16.10;99.90;;;;;;5089159;28;20465;-64
2023/09/16 03:15:02;;;;;;;5.90;5.30;;;16.20;99.90;;;;;;5087556;28;20584;-64
2023/09/16 03:17:29;;;;;;;5.60;4.87;;;16.20;99.90;;;;;;5089991;28;20780;-64
2023/09/16 03:19:55;;;;;;;5.30;4.23;;;16.10;99.90;;;;;;5086670;28;20418;-65
2023/09/16 03:22:20;;;;;;;5.57;4.90;;;16.10;99.90;;;;;;5090743;28;20426;-64
2023/09/16 03:24:46;;;;;;;5.50;5.00;;;16.00;99.90;;;;;;5089384;28;20896;-64
2023/09/16 03:27:12;;;;;;;6.40;5.70;;;16.00;99.90;;;;;;5088001;28;20188;-65
2023/09/16 03:29:37;;;;;;;8.20;5.03;;;16.00;99.90;;;;;;5088078;28;20180;-65
2023/09/16 03:32:03;;;;;;;6.50;5.77;;;16.00;99.90;;;;;;5090502;28;20197;-64
2023/09/16 03:34:29;;;;;;;5.40;4.90;;;16.00;99.90;;;;;;5089537;28;20258;-65
2023/09/16 03:36:55;;;;;;;5.77;5.17;;;16.00;99.90;;;;;;5089115;28;20426;-64
2023/09/16 03:39:21;;;;;;;5.50;5.00;;;16.00;99.90;;;;;;5090855;28;20263;-65
2023/09/16 03:41:46;;;;;;;5.93;4.97;;;16.00;99.90;;;;;;5088895;28;20422;-65
2023/09/16 03:44:13;;;;;;;7.17;5.73;;;16.00;99.90;;;;;;5088778;28;20939;-64
2023/09/16 03:46:39;;;;;;;5.30;4.90;;;16.00;99.90;;;;;;5088512;28;20542;-65
2023/09/16 03:49:05;;;;;;;6.20;5.50;;;16.00;99.90;;;;;;5091000;28;20422;-65
2023/09/16 03:51:33;;;;;;;8.73;6.27;;;16.00;99.90;;;;;;5088989;28;21257;-65
2023/09/16 03:53:59;;;;;;;6.60;6.00;;;16.00;99.90;;;;;;5089719;28;20557;-64
2023/09/16 03:56:25;;;;;;;7.13;6.43;;;16.00;99.90;;;;;;5089911;28;20926;-65
2023/09/16 03:58:50;;;;;;;6.90;5.27;;;16.00;99.90;;;;;;5090038;28;20422;-65
2023/09/16 04:01:17;;;;;;;6.63;6.03;;;16.00;99.90;;;;;;5093407;28;20224;-64
2023/09/16 04:03:43;;;;;;;6.17;5.57;;;16.10;99.90;;;;;;5092371;28;20195;-65
2023/09/16 04:06:09;;;;;;;6.23;5.63;;;16.10;99.90;;;;;;5091574;28;20415;-65
2023/09/16 04:08:35;;;;;;;6.00;5.40;;;16.10;99.90;;;;;;5092634;28;20199;-64
2023/09/16 04:11:01;;;;;;;7.90;5.50;;;16.10;99.90;;;;;;5093384;28;20489;-65
2023/09/16 04:13:27;;;;;;;6.00;5.50;;;16.10;99.90;;;;;;5093025;28;20454;-65
2023/09/16 04:15:54;;;;;;;9.13;5.80;;;16.10;99.90;;;;;;5088990;28;20195;-65
2023/09/16 04:18:20;;;;;;;5.77;5.17;;;16.10;99.90;;;;;;5093788;28;20526;-65
2023/09/16 04:20:47;;;;;;;6.87;6.17;;;16.00;99.90;;;;;;5092060;28;20802;-65
2023/09/16 04:23:14;;;;;;;6.67;6.07;;;16.00;99.90;;;;;;5094253;28;20425;-64
2023/09/16 04:25:40;;;;;;;7.00;6.10;;;15.90;99.90;;;;;;5088892;28;20559;-65
2023/09/16 04:28:05;;;;;;;6.17;5.60;;;15.90;99.90;;;;;;5093516;28;20893;-65
2023/09/16 04:30:38;;;;;;;6.60;5.97;;;15.90;99.90;;;;;;5091060;28;20192;-65
2023/09/16 04:33:04;;;;;;;7.40;6.17;;;15.90;99.90;;;;;;5090393;28;20785;-64
2023/09/16 04:35:31;;;;;;;6.10;5.50;;;15.90;99.90;;;;;;5092290;28;20436;-65
2023/09/16 04:37:56;;;;;;;6.47;5.70;;;15.90;99.90;;;;;;5091813;28;20187;-64
2023/09/16 04:40:22;;;;;;;5.90;5.40;;;16.00;99.90;;;;;;5091790;28;20426;-64
2023/09/16 04:42:48;;;;;;;6.37;5.77;;;16.00;99.90;;;;;;5088346;28;20523;-65
2023/09/16 04:45:15;;;;;;;5.77;5.20;;;16.00;99.90;;;;;;5095961;28;20215;-64
2023/09/16 04:47:41;;;;;;;7.53;6.83;;;16.00;99.90;;;;;;5104128;28;20264;-65
2023/09/16 04:50:07;;;;;;;6.10;5.60;;;16.00;99.90;;;;;;5103325;28;20425;-64
2023/09/16 04:52:33;;;;;;;5.50;5.00;;;16.00;99.90;;;;;;5103510;28;20517;-65
2023/09/16 04:54:59;;;;;;;6.40;5.70;;;16.00;99.90;;;;;;5100458;28;21247;-65
2023/09/16 04:57:25;;;;;;;7.10;5.77;;;16.00;99.90;;;;;;5088736;28;20192;-64
2023/09/16 04:59:51;;;;;;;8.50;7.60;;;16.00;99.90;;;;;;5095155;28;20246;-65
2023/09/16 05:02:17;;;;;;;6.60;5.90;;;16.00;99.90;;;;;;5097355;28;20465;-64
2023/09/16 05:04:42;;;;;;;6.97;6.17;;;16.00;99.90;;;;;;5096295;28;20271;-66
2023/09/16 05:07:08;;;;;;;7.10;5.80;;;15.90;99.90;;;;;;5092545;28;20183;-65
2023/09/16 05:09:35;;;;;;;6.77;5.63;;;15.90;99.90;;;;;;5090284;28;20188;-64
2023/09/16 05:12:00;;;;;;;5.87;5.37;;;15.80;99.90;;;;;;5092134;28;20424;-64
2023/09/16 05:14:26;;;;;;;6.70;5.60;;;15.80;99.90;;;;;;5088858;28;20478;-64
2023/09/16 05:16:52;;;;;;;6.70;5.60;;;15.80;99.90;;;;;;5087634;28;20212;-65
2023/09/16 05:19:17;;;;;;;6.27;5.70;;;15.70;99.90;;;;;;5089572;28;20228;-64
2023/09/16 05:21:43;;;;;;;6.00;5.50;;;15.70;99.90;;;;;;5090611;28;20615;-65
2023/09/16 05:24:09;;;;;;;6.10;5.57;;;15.70;99.90;;;;;;5092202;28;20180;-64
2023/09/16 05:26:34;;;;;;;7.97;6.80;;;15.60;99.90;;;;;;5090765;28;20204;-65
2023/09/16 05:29:00;;;;;;;7.20;6.53;;;15.60;99.90;;;;;;5090515;28;20195;-64
2023/09/16 05:31:26;;;;;;;6.70;6.00;;;15.60;99.90;;;;;;5097535;28;20310;-64
2023/09/16 05:33:52;;;;;;;8.20;7.10;;;15.70;99.90;;;;;;5093055;28;20665;-65
2023/09/16 05:36:19;;;;;;;9.37;6.50;;;15.60;99.90;;;;;;5089499;28;20425;-64
2023/09/16 05:38:44;;;;;;;9.40;7.20;;;15.70;99.90;;;;;;5090203;28;20589;-65
2023/09/16 05:41:10;;;;;;;7.83;6.80;;;15.70;99.90;;;;;;5091890;28;20517;-65
2023/09/16 05:43:35;;;;;;;7.73;6.93;;;15.70;99.90;;;;;;5090560;28;20658;-64
2023/09/16 05:46:01;;;;;;;8.23;7.53;;;15.60;99.90;;;;;;5087877;28;20641;-64
2023/09/16 05:48:28;;;;;;;10.87;7.40;;;15.70;99.90;;;;;;5095327;28;20523;-65
2023/09/16 05:51:00;;;;;;;7.93;7.20;;;15.60;99.90;;;;;;5090074;28;20732;-64
2023/09/16 05:53:26;;;;;;;8.00;7.30;;;15.70;99.90;;;;;;5091039;28;20561;-65
2023/09/16 05:55:53;;;;;;;8.20;7.20;;;15.70;99.90;;;;;;5090121;28;20950;-64
2023/09/16 05:58:19;;;;;;;9.37;7.60;;;15.70;99.90;;;;;;5097354;28;20913;-64
2023/09/16 06:00:54;;;;;;;10.77;8.27;;;15.80;99.90;;;;;;5096152;28;20480;-65
2023/09/16 06:03:20;;;;;;;7.90;6.93;;;15.80;99.90;;;;;;5091734;28;20421;-64
2023/09/16 06:05:46;;;;;;;8.53;7.63;;;15.80;99.90;;;;;;5090832;28;20445;-64
2023/09/16 06:08:12;;;;;;;8.50;7.70;;;15.80;99.90;;;;;;5092256;28;20176;-64
2023/09/16 06:10:37;;;;;;;9.60;8.40;;;15.80;99.90;;;;;;5090358;28;20637;-64
2023/09/16 06:13:03;;;;;;;9.63;7.60;;;15.90;99.90;;;;;;5089542;28;20423;-64
2023/09/16 06:15:30;;;;;;;10.60;8.20;;;16.00;99.90;;;;;;5083495;28;20245;-64
2023/09/16 06:17:55;;;;;;;11.83;7.10;;;16.10;99.90;;;;;;5088639;28;20620;-65
2023/09/16 06:20:21;;;;;;;8.47;7.63;;;16.30;99.90;;;;;;5089941;28;20422;-64
2023/09/16 06:22:47;;;;;;;8.50;7.70;;;16.40;99.90;;;;;;5088229;28;20748;-65
2023/09/16 06:25:13;;;;;;;11.07;9.17;;;16.50;99.90;;;;;;5088781;28;20188;-64
2023/09/16 06:27:38;;;;;;;9.60;7.90;;;16.60;99.90;;;;;;5089242;28;20184;-64
2023/09/16 06:30:04;;;;;;;9.40;8.50;;;16.70;99.90;;;;;;5089681;28;20176;-65
2023/09/16 06:32:30;;;;;;;7.27;6.57;;;16.80;99.90;;;;;;5089861;28;20207;-65
2023/09/16 06:34:56;;;;;;;8.97;8.17;;;16.90;99.90;;;;;;5089207;28;20471;-64
2023/09/16 06:37:21;;;;;;;9.70;7.70;;;17.00;99.90;;;;;;5088347;28;20183;-64
2023/09/16 06:39:47;;;;;;;8.53;7.73;;;17.10;99.90;;;;;;5089796;28;20241;-65
2023/09/16 06:42:13;;;;;;;9.73;8.73;;;17.20;99.90;;;;;;5090914;28;20176;-64
2023/09/16 06:44:39;;;;;;;9.80;8.87;;;17.20;99.90;;;;;;5087660;28;20426;-65
2023/09/16 06:47:04;;;;;;;10.50;9.50;;;17.30;99.90;;;;;;5089986;28;20236;-65
2023/09/16 06:49:30;;;;;;;8.67;7.77;;;17.30;99.90;;;;;;5089881;28;20183;-64
2023/09/16 06:51:56;;;;;;;10.83;9.70;;;17.30;99.90;;;;;;5088658;28;20746;-64
2023/09/16 06:54:22;;;;;;;10.33;9.23;;;17.40;99.90;;;;;;5093941;28;20768;-64
2023/09/16 06:56:47;;;;;;;11.23;9.47;;;17.40;99.90;;;;;;5096573;28;20180;-64
2023/09/16 06:59:13;;;;;;;8.13;7.33;;;17.40;99.90;;;;;;5091546;28;20521;-64
2023/09/16 07:01:39;;;;;;;10.10;8.07;;;17.50;99.90;;;;;;5095503;28;20194;-64
2023/09/16 07:04:05;;;;;;;10.30;9.23;;;17.50;99.90;;;;;;5095891;28;20915;-64
2023/09/16 07:06:31;;;;;;;9.70;8.80;;;17.60;99.90;;;;;;5095497;28;20187;-64
2023/09/16 07:08:56;;;;;;;10.33;9.27;;;17.60;99.90;;;;;;5092023;28;20182;-64
2023/09/16 07:11:22;;;;;;;8.50;7.70;;;17.60;99.90;;;;;;5089977;28;20184;-64
2023/09/16 07:13:48;;;;;;;12.80;7.33;;;17.70;99.90;;;;;;5089003;28;20261;-64
2023/09/16 07:16:15;;;;;;;9.53;8.13;;;17.80;99.90;;;;;;5085104;28;20204;-64
2023/09/16 07:18:40;;;;;;;8.20;7.40;;;17.90;99.90;;;;;;5088499;28;20195;-64
2023/09/16 07:21:06;;;;;;;8.37;7.53;;;18.10;99.90;;;;;;5094390;28;21037;-64
2023/09/16 07:23:32;;;;;;;9.90;7.10;;;18.20;99.90;;;;;;5091310;28;20211;-64
2023/09/16 07:25:59;;;;;;;8.60;7.13;;;18.30;99.90;;;;;;5096570;28;20425;-64
2023/09/16 07:28:27;;;;;;;7.40;6.80;;;18.40;99.90;;;;;;5089666;28;20557;-64
2023/09/16 07:30:52;;;;;;;6.33;5.67;;;18.50;99.90;;;;;;5092882;28;20445;-65
2023/09/16 07:33:18;;;;;;;8.20;7.13;;;18.60;99.90;;;;;;5094690;28;20422;-64
2023/09/16 07:35:44;;;;;;;6.73;6.10;;;18.70;99.90;;;;;;5092290;28;20188;-64
2023/09/16 07:38:09;;;;;;;7.00;5.73;;;18.90;99.90;;;;;;5091290;28;20176;-64
2023/09/16 07:40:37;;;;;;;6.90;6.20;;;19.10;99.90;;;;;;5092018;28;20180;-64
2023/09/16 07:43:08;;;;;;;6.03;5.43;;;19.30;99.90;;;;;;5092989;28;20187;-64
2023/09/16 07:45:34;;;;;;;6.00;5.00;;;19.40;99.90;;;;;;5092961;28;20482;-65
2023/09/16 07:48:00;;;;;;;6.27;5.67;;;19.60;99.90;;;;;;5089708;28;20426;-64
2023/09/16 07:50:26;;;;;;;6.20;5.60;;;19.70;99.90;;;;;;5093893;28;20425;-64
2023/09/16 07:52:52;;;;;;;6.33;4.90;;;19.70;99.90;;;;;;5091991;28;20422;-65
2023/09/16 07:55:17;;;;;;;6.00;5.23;;;19.80;99.90;;;;;;5093920;28;20211;-64
2023/09/16 07:57:43;;;;;;;5.10;4.70;;;19.90;99.90;;;;;;5091738;28;20212;-64
2023/09/16 08:00:09;;;;;;;5.53;4.80;;;20.00;99.90;;;;;;5092891;28;20184;-65
2023/09/16 08:02:35;;;;;;;6.30;5.27;;;20.10;99.90;;;;;;5092362;28;20583;-65
2023/09/16 08:05:00;;;;;;;6.20;5.00;;;20.10;99.90;;;;;;5089651;28;20422;-65
2023/09/16 08:07:28;;;;;;;5.90;5.40;;;20.20;99.90;;;;;;5093016;28;20180;-64
2023/09/16 08:09:53;;;;;;;4.77;4.37;;;20.30;99.90;;;;;;5091904;28;20191;-65
2023/09/16 08:12:23;;;;;;;6.90;5.40;;;20.30;99.90;;;;;;5090606;28;20473;-64
2023/09/16 08:14:49;;;;;;;5.37;4.87;;;20.30;99.90;;;;;;5089202;28;20208;-65
2023/09/16 08:17:15;;;;;;;5.23;4.73;;;20.40;99.90;;;;;;5093142;28;20418;-64
2023/09/16 08:19:40;;;;;;;7.30;4.97;;;20.50;99.90;;;;;;5096855;28;21248;-65
2023/09/16 08:22:06;;;;;;;6.00;4.73;;;20.50;99.90;;;;;;5092101;28;20427;-64
2023/09/16 08:24:32;;;;;;;4.93;4.50;;;20.50;99.90;;;;;;5092227;28;20190;-65
2023/09/16 08:26:57;;;;;;;4.97;4.57;;;20.50;99.90;;;;;;5091202;28;20184;-65
2023/09/16 08:29:23;;;;;;;4.90;4.40;;;20.50;99.90;;;;;;5091299;28;20192;-65
2023/09/16 08:31:49;;;;;;;5.00;4.60;;;20.50;99.90;;;;;;5091098;28;20791;-65
2023/09/16 08:34:14;;;;;;;5.17;4.67;;;20.50;99.90;;;;;;5093187;28;20225;-64
2023/09/16 08:36:40;;;;;;;4.73;4.23;;;20.60;99.90;;;;;;5090902;28;20177;-65
2023/09/16 08:39:06;;;;;;;4.43;4.03;;;20.60;99.90;;;;;;5091686;28;20177;-65
2023/09/16 08:42:02;;;;;;;7.27;5.00;;;20.70;99.90;;;;;;5091894;28;20705;-64
2023/09/16 08:44:33;;;;;;;4.70;4.30;;;20.80;99.90;;;;;;5090229;28;20199;-65
2023/09/16 08:47:04;;;;;;;4.40;4.00;;;20.80;99.90;;;;;;5088195;28;20430;-64
2023/09/16 08:49:33;;;;;;;5.03;4.53;;;20.80;99.90;;;;;;5092161;28;20440;-65
2023/09/16 08:52:01;;;;;;;4.70;4.30;;;20.90;99.90;;;;;;5091072;28;20419;-65
2023/09/16 08:54:31;;;;;;;4.77;4.37;;;20.90;99.90;;;;;;5095172;28;20557;-65
2023/09/16 08:56:58;;;;;;;4.60;4.20;;;21.00;99.90;;;;;;5090361;28;20431;-64
2023/09/16 08:59:24;;;;;;;5.50;5.10;;;21.10;99.90;;;;;;5092429;28;20417;-65
2023/09/16 09:01:50;;;;;;;5.10;4.70;;;21.10;99.90;;;;;;5090445;28;20458;-65
2023/09/16 09:04:16;;;;;;;5.17;4.60;;;21.20;99.90;;;;;;5092395;28;20456;-64
2023/09/16 09:06:42;;;;;;;5.90;5.30;;;21.20;99.90;;;;;;5088913;28;20305;-65
2023/09/16 09:09:08;;;;;;;4.97;4.57;;;21.30;99.90;;;;;;5091569;28;20195;-64
2023/09/16 09:11:35;;;;;;;4.77;4.37;;;21.40;99.90;;;;;;5091391;28;20441;-65
2023/09/16 09:14:03;;;;;;;7.03;5.20;;;21.50;99.90;;;;;;5090039;28;20256;-65
2023/09/16 09:16:30;;;;;;;4.97;4.57;;;21.70;99.90;;;;;;5090238;28;20438;-64
2023/09/16 09:18:56;;;;;;;7.83;5.10;;;21.70;99.90;;;;;;5090056;28;20472;-65
2023/09/16 09:21:22;;;;;;;5.80;5.17;;;21.90;99.90;;;;;;5092173;28;20422;-64
2023/09/16 09:23:48;;;;;;;4.77;4.30;;;22.00;99.90;;;;;;5089942;28;20516;-65
2023/09/16 09:26:14;;;;;;;5.90;5.27;;;22.10;99.90;;;;;;5091752;28;20180;-65
2023/09/16 09:28:43;;;;;;;6.07;5.33;;;22.20;99.90;;;;;;5089076;28;20267;-65
2023/09/16 09:31:09;;;;;;;6.87;4.53;;;22.30;99.90;;;;;;5090805;28;20435;-64
2023/09/16 09:33:42;;;;;;;5.67;5.10;;;22.40;99.90;;;;;;5090783;28;20462;-65
2023/09/16 09:36:11;;;;;;;5.40;4.90;;;22.50;99.90;;;;;;5097057;28;20567;-65
2023/09/16 09:38:41;;;;;;;5.43;4.93;;;22.60;99.90;;;;;;5089915;28;20551;-65
2023/09/16 09:41:07;;;;;;;5.50;4.83;;;22.80;99.90;;;;;;5090559;28;21262;-64
2023/09/16 09:43:33;;;;;;;6.60;5.17;;;22.90;99.90;;;;;;5090707;28;20425;-65
2023/09/16 09:45:59;;;;;;;6.27;5.70;;;23.00;99.90;;;;;;5095295;28;20712;-65
2023/09/16 09:48:25;;;;;;;5.00;4.60;;;23.10;99.90;;;;;;5091616;28;20207;-65
2023/09/16 09:50:51;;;;;;;5.90;5.27;;;23.30;99.90;;;;;;5089566;28;20430;-65
2023/09/16 09:53:16;;;;;;;5.53;5.03;;;23.40;99.90;;;;;;5090965;28;20418;-64
2023/09/16 09:55:43;;;;;;;5.37;4.97;;;23.40;99.90;;;;;;5093745;28;20188;-64
2023/09/16 09:58:09;;;;;;;5.30;4.80;;;23.50;99.90;;;;;;5091831;28;20184;-65
2023/09/16 10:00:35;;;;;;;5.90;5.30;;;23.60;99.90;;;;;;5089991;28;20487;-64
2023/09/16 10:03:01;;;;;;;6.50;5.17;;;23.80;99.90;;;;;;5089229;28;20426;-65
2023/09/16 10:05:27;;;;;;;6.30;5.70;;;23.90;99.90;;;;;;5090725;28;20208;-65
2023/09/16 10:07:53;;;;;;;8.57;5.97;;;24.00;99.90;;;;;;5088680;28;20504;-65
2023/09/16 10:10:24;;;;;;;5.63;5.13;;;24.10;99.90;;;;;;5091269;28;20308;-64
2023/09/16 10:12:52;;;;;;;5.57;5.07;;;24.20;99.90;;;;;;5089062;28;20184;-65
2023/09/16 10:15:26;;;;;;;6.87;5.90;;;24.30;99.90;;;;;;5088645;28;20469;-65
2023/09/16 10:17:52;;;;;;;5.87;5.37;;;24.40;99.90;;;;;;5088666;28;20423;-65
2023/09/16 10:20:18;;;;;;;6.20;5.70;;;24.40;99.90;;;;;;5091075;28;20983;-64
2023/09/16 10:22:44;;;;;;;6.30;5.70;;;24.40;99.90;;;;;;5088888;28;20433;-65
2023/09/16 10:25:12;;;;;;;5.97;5.40;;;24.60;99.90;;;;;;5096077;28;20937;-65
2023/09/16 10:28:09;;;;;;;6.23;5.63;;;24.70;99.90;;;;;;5089105;28;20433;-65
2023/09/16 10:30:37;;;;;;;6.83;5.87;;;24.60;99.90;;;;;;5088458;28;20442;-65
2023/09/16 10:33:04;;;;;;;6.97;6.37;;;24.50;99.90;;;;;;5088964;28;20985;-65
2023/09/16 10:35:34;;;;;;;7.33;6.70;;;24.30;99.90;;;;;;5088283;28;20601;-65
2023/09/16 10:38:02;;;;;;;7.40;6.70;;;24.00;99.90;;;;;;5088268;28;20454;-65
2023/09/16 10:40:29;;;;;;;8.87;5.83;;;23.80;99.90;;;;;;5090626;28;20448;-65
2023/09/16 10:42:57;;;;;;;6.83;6.23;;;23.70;99.90;;;;;;5093883;28;20425;-65
2023/09/16 10:45:24;;;;;;;10.30;6.00;;;23.60;99.90;;;;;;5091109;28;20432;-64
2023/09/16 10:47:51;;;;;;;6.33;5.77;;;23.60;99.90;;;;;;5086940;28;20422;-65
2023/09/16 10:50:18;;;;;;;7.07;6.47;;;23.70;99.90;;;;;;5091090;28;20417;-65
2023/09/16 10:52:57;;;;;;;7.00;6.30;;;23.80;99.90;;;;;;5093626;28;20441;-65
2023/09/16 10:55:41;;;;;;;5.80;5.30;;;23.90;99.90;;;;;;5088220;28;20465;-65
2023/09/16 10:58:21;;;;;;;7.53;6.13;;;24.20;99.90;;;;;;5087929;28;20418;-65
2023/09/16 11:00:58;;;;;;;6.20;5.70;;;24.30;99.90;;;;;;5088527;28;20420;-65
2023/09/16 11:03:30;;;;;;;6.70;6.20;;;24.40;99.90;;;;;;5088390;28;20428;-65
2023/09/16 11:06:01;;;;;;;7.00;6.33;;;24.40;99.90;;;;;;5087491;28;20433;-65
2023/09/16 11:08:27;;;;;;;6.10;5.60;;;24.50;99.90;;;;;;5098290;28;20524;-65
2023/09/16 11:10:55;;;;;;;9.60;6.20;;;24.60;99.90;;;;;;5090685;28;20452;-65
2023/09/16 11:13:24;;;;;;;7.57;6.73;;;24.80;99.90;;;;;;5092206;28;20471;-65
2023/09/16 11:15:50;;;;;;;7.70;7.00;;;25.00;99.90;;;;;;5090140;28;20426;-65
2023/09/16 11:18:18;;;;;;;7.00;6.30;;;25.00;99.90;;;;;;5093982;28;20817;-65
2023/09/16 11:20:45;;;;;;;6.47;5.87;;;25.10;99.90;;;;;;5093396;28;20234;-65
2023/09/16 11:23:12;;;;;;;6.37;5.87;;;25.10;99.90;;;;;;5098083;28;20432;-65
2023/09/16 11:25:40;;;;;;;7.27;5.90;;;25.20;99.90;;;;;;5097707;28;20464;-65
2023/09/16 11:28:14;;;;;;;7.20;6.60;;;25.30;99.90;;;;;;5101542;28;20426;-65
2023/09/16 11:30:53;;;;;;;8.87;6.30;;;25.20;99.90;;;;;;5099478;28;20518;-65
2023/09/16 11:33:30;;;;;;;6.50;5.90;;;25.30;99.90;;;;;;5099159;28;20514;-65
2023/09/16 11:36:15;;;;;;;7.13;6.47;;;25.40;99.90;;;;;;5099506;28;20432;-65
2023/09/16 11:39:15;;;;;;;6.77;6.17;;;25.50;99.90;;;;;;5097461;28;20418;-65
2023/09/16 11:41:41;;;;;;;6.40;5.80;;;25.70;99.90;;;;;;5100329;28;20454;-65
2023/09/16 11:44:07;;;;;;;6.37;5.80;;;25.70;99.90;;;;;;5098469;27;20432;-65
2023/09/16 11:46:35;;;;;;;6.93;6.40;;;25.70;99.90;;;;;;5102641;28;20432;-65
2023/09/16 11:49:05;;;;;;;6.53;5.93;;;25.80;99.90;;;;;;5095418;28;20434;-64
2023/09/16 11:51:36;;;;;;;6.73;6.10;;;25.90;99.90;;;;;;5093365;28;21209;-64
2023/09/16 11:54:02;;;;;;;6.50;5.77;;;26.00;99.90;;;;;;5091341;28;21002;-64
2023/09/16 11:56:35;;;;;;;7.53;6.80;;;26.10;99.90;;;;;;5091500;28;20470;-64
2023/09/16 11:59:03;;;;;;;6.50;5.77;;;26.20;99.90;;;;;;5099541;28;20498;-64
2023/09/16 12:01:31;;;;;;;6.10;5.60;;;26.20;99.90;;;;;;5104191;27;21032;-65
2023/09/16 12:03:59;;;;;;;7.30;6.70;;;26.40;99.90;;;;;;5099378;27;20893;-64
2023/09/16 12:06:28;;;;;;;6.47;5.93;;;26.30;99.90;;;;;;5098400;28;20476;-64
2023/09/16 12:08:55;;;;;;;8.10;7.33;;;26.40;99.90;;;;;;5090442;28;20599;-64
2023/09/16 12:11:22;;;;;;;7.20;6.60;;;26.30;99.90;;;;;;5094015;28;20457;-64
2023/09/16 12:13:48;;;;;;;6.83;6.33;;;26.20;99.90;;;;;;5098076;28;20505;-64
2023/09/16 12:16:15;;;;;;;8.67;6.87;;;26.20;99.90;;;;;;5101779;28;21306;-64
2023/09/16 12:18:42;;;;;;;7.60;6.90;;;26.20;99.90;;;;;;5104678;28;20993;-65
2023/09/16 12:21:09;;;;;;;7.63;6.90;;;26.20;99.90;;;;;;5099066;27;20461;-64
2023/09/16 12:23:34;;;;;;;8.03;7.43;;;26.30;99.90;;;;;;5098439;28;20453;-64
2023/09/16 12:26:00;;;;;;;6.90;6.40;;;26.30;99.90;;;;;;5103710;28;20459;-64
2023/09/16 12:28:27;;;;;;;7.10;6.60;;;26.30;99.90;;;;;;5103892;28;20207;-64
2023/09/16 12:30:57;;;;;;;7.20;6.60;;;26.30;99.90;;;;;;5101271;28;20289;-64
2023/09/16 12:33:44;;;;;;;7.00;6.30;;;26.40;99.90;;;;;;5095941;28;20453;-64
2023/09/16 12:36:21;;;;;;;6.63;6.03;;;26.40;99.90;;;;;;5097412;28;20957;-64
2023/09/16 12:38:47;;;;;;;7.70;7.00;;;26.50;99.90;;;;;;5101268;28;20454;-64
2023/09/16 12:41:14;;;;;;;6.13;5.63;;;26.40;99.90;;;;;;5100350;28;21096;-65
2023/09/16 12:43:40;;;;;;;7.80;7.07;;;26.40;99.90;;;;;;5098809;28;20292;-65
2023/09/16 12:46:08;;;;;;;7.00;6.40;;;26.40;99.90;;;;;;5092960;28;21149;-64